Cape Cod Natl Seashore, Massachusetts
Current Conditions -  °F | °C
As of 11:55 AM on Saturday 22 Nov 2014 (Local Time) from KPVC Reporting Station
Clear Clear  
Wind Chill: 31°   Ceiling: Unl
Heat Index: 41°   Visibility: 10mi
Dew Point: 21°   Wind: 22mph
Humidity: 45%   Direction: 220°SW
Pressure: 30.29"   Gusts: 25mph
Location:  41.97°N, 70.01°W
Report Text: KPVC 221655Z 22019G22KT 10SM CLR 05/M06 A3029 RMK AO1
Loading
Personal Weather Stations






























Interactive Weather Map New forecast layout! Learn more

10-Day Weather Forecast

Advertisements
Track Severe Weather on mobile